createdAt,value
2023-03-24T00:01:26.095Z,70.78
2023-03-24T00:03:54.239Z,71.88
2023-03-24T00:06:23.450Z,71.39
2023-03-24T00:08:53.451Z,72.22
2023-03-24T00:11:21.671Z,70.55
2023-03-24T00:13:51.428Z,70.88
2023-03-24T00:16:21.920Z,70.98
2023-03-24T00:18:53.505Z,69.80
2023-03-24T00:21:24.787Z,69.71
2023-03-24T00:23:55.506Z,69.85
2023-03-24T00:26:25.226Z,70.32
2023-03-24T00:28:57.123Z,70.43
2023-03-24T00:31:26.814Z,70.19
2023-03-24T00:33:55.325Z,70.71
2023-03-24T00:36:26.025Z,69.76
2023-03-24T00:38:55.216Z,70.00
2023-03-24T00:41:25.129Z,69.93
2023-03-24T00:43:58.484Z,70.28
2023-03-24T00:46:30.830Z,69.94
2023-03-24T00:49:03.525Z,69.83
2023-03-24T00:51:34.234Z,69.11
2023-03-24T00:54:03.101Z,68.77
2023-03-24T00:56:34.469Z,68.72
2023-03-24T00:59:04.715Z,67.41
2023-03-24T01:01:36.594Z,66.38
2023-03-24T01:04:06.896Z,65.79
2023-03-24T01:06:36.573Z,65.13
2023-03-24T01:09:06.259Z,65.21
2023-03-24T01:11:40.344Z,65.13
2023-03-24T01:14:10.611Z,64.86
2023-03-24T01:16:38.718Z,64.28
2023-03-24T01:19:08.652Z,64.06
2023-03-24T01:21:39.384Z,63.67
2023-03-24T01:24:08.330Z,63.19
2023-03-24T01:26:36.579Z,63.15
2023-03-24T01:29:05.008Z,63.78
2023-03-24T01:31:37.883Z,63.64
2023-03-24T01:34:06.741Z,63.77
2023-03-24T01:36:35.539Z,63.73
2023-03-24T01:39:04.944Z,64.55
2023-03-24T01:41:36.360Z,64.28
2023-03-24T01:44:26.167Z,64.57
2023-03-24T01:46:56.881Z,65.07
2023-03-24T01:49:28.164Z,66.42
2023-03-24T01:51:59.439Z,67.15
2023-03-24T01:54:33.231Z,67.19
2023-03-24T01:57:06.409Z,67.62
2023-03-24T01:59:42.618Z,66.39
2023-03-24T02:02:25.174Z,66.29
2023-03-24T02:05:01.622Z,66.01
2023-03-24T02:07:42.954Z,66.47
2023-03-24T02:10:13.478Z,66.94
2023-03-24T02:12:42.763Z,66.65
2023-03-24T02:15:14.076Z,66.45
2023-03-24T02:18:01.696Z,66.47
2023-03-24T02:21:06.285Z,66.38
2023-03-24T02:24:07.974Z,65.68
2023-03-24T02:27:06.231Z,65.52
2023-03-24T02:30:06.643Z,64.24
2023-03-24T02:33:26.079Z,63.99
2023-03-24T02:36:28.296Z,64.78
2023-03-24T02:39:33.064Z,63.73
2023-03-24T02:42:21.223Z,63.71
2023-03-24T02:44:58.413Z,63.59
2023-03-24T02:47:36.366Z,62.56
2023-03-24T02:50:15.596Z,62.47
2023-03-24T02:52:49.462Z,62.01
2023-03-24T02:55:21.894Z,62.33
2023-03-24T02:57:56.905Z,61.49
2023-03-24T03:00:48.230Z,61.12
2023-03-24T03:03:41.707Z,60.53
2023-03-24T03:06:17.715Z,60.60
2023-03-24T03:08:48.582Z,60.19
2023-03-24T03:11:18.414Z,60.48
2023-03-24T03:13:54.382Z,60.37
2023-03-24T03:16:25.843Z,59.76
2023-03-24T03:18:58.239Z,59.69
2023-03-24T03:21:29.531Z,59.77
2023-03-24T03:24:03.270Z,59.74
2023-03-24T03:26:34.242Z,59.42
2023-03-24T03:29:09.543Z,59.32
2023-03-24T03:31:42.796Z,59.77
2023-03-24T03:34:34.268Z,59.36
2023-03-24T03:37:09.447Z,59.85
2023-03-24T03:39:42.297Z,60.02
2023-03-24T03:42:12.471Z,59.51
2023-03-24T03:44:42.777Z,59.52
2023-03-24T03:47:10.982Z,59.29
2023-03-24T03:49:43.752Z,59.98
2023-03-24T03:52:11.774Z,59.74
2023-03-24T03:54:42.434Z,59.95
2023-03-24T03:57:11.841Z,59.90
2023-03-24T03:59:53.968Z,60.38
2023-03-24T04:02:40.294Z,61.59
2023-03-24T04:05:26.074Z,60.65
2023-03-24T04:08:19.801Z,59.27
2023-03-24T04:11:12.001Z,59.08
2023-03-24T04:14:10.222Z,58.78
2023-03-24T04:16:59.463Z,58.69
2023-03-24T04:19:44.508Z,58.50
2023-03-24T04:22:26.859Z,58.13
2023-03-24T04:25:18.189Z,57.88
2023-03-24T04:27:57.183Z,57.11
2023-03-24T04:30:33.287Z,57.21
2023-03-24T04:33:06.803Z,57.19
2023-03-24T04:35:40.686Z,56.88
2023-03-24T04:38:27.643Z,56.62
2023-03-24T04:41:27.868Z,56.95
2023-03-24T04:44:08.465Z,57.00
2023-03-24T04:46:46.604Z,57.13
2023-03-24T04:49:20.466Z,57.02
2023-03-24T04:51:49.563Z,56.75
2023-03-24T04:54:29.847Z,56.84
2023-03-24T04:57:05.859Z,57.15
2023-03-24T04:59:46.230Z,57.15
2023-03-24T05:02:15.667Z,57.86
2023-03-24T05:04:52.693Z,57.48
2023-03-24T05:07:27.145Z,57.88
2023-03-24T05:09:58.908Z,58.29
2023-03-24T05:12:27.272Z,58.45
2023-03-24T05:15:13.939Z,58.93
2023-03-24T05:17:43.912Z,59.29
2023-03-24T05:20:15.136Z,60.27
2023-03-24T05:22:49.670Z,61.61
2023-03-24T05:25:17.828Z,64.94
2023-03-24T05:27:46.647Z,66.73
2023-03-24T05:30:21.271Z,67.47
2023-03-24T05:32:53.003Z,68.48
2023-03-24T05:35:22.634Z,68.59
2023-03-24T05:37:50.780Z,70.47
2023-03-24T05:40:22.169Z,70.43
2023-03-24T05:42:54.670Z,70.19
2023-03-24T05:45:27.230Z,70.43
2023-03-24T05:47:55.963Z,71.50
2023-03-24T05:50:37.378Z,72.98
2023-03-24T05:53:06.169Z,73.85
2023-03-24T05:55:58.723Z,74.52
2023-03-24T05:58:52.779Z,73.99
2023-03-24T06:01:21.649Z,74.90
2023-03-24T06:03:56.565Z,75.57
2023-03-24T06:06:28.811Z,76.05
2023-03-24T06:08:58.447Z,77.44
2023-03-24T06:11:28.417Z,77.14
2023-03-24T06:14:03.907Z,78.93
2023-03-24T06:16:42.691Z,79.40
2023-03-24T06:19:13.955Z,77.38
2023-03-24T06:22:03.378Z,79.51
2023-03-24T06:24:36.350Z,78.71
2023-03-24T06:27:10.644Z,77.41
2023-03-24T06:29:39.434Z,77.80
2023-03-24T06:32:08.034Z,77.80
2023-03-24T06:34:42.093Z,78.04
2023-03-24T06:37:20.261Z,78.34
2023-03-24T06:39:48.337Z,78.21
2023-03-24T06:42:19.012Z,78.94
2023-03-24T06:44:47.067Z,79.77
2023-03-24T06:47:17.355Z,79.16
2023-03-24T06:49:45.561Z,78.76
2023-03-24T06:52:13.678Z,78.49
2023-03-24T06:54:43.847Z,79.17
2023-03-24T06:57:11.836Z,78.20
2023-03-24T07:00:14.908Z,77.93
2023-03-24T07:02:57.351Z,78.68
2023-03-24T07:05:25.496Z,78.48
2023-03-24T07:08:27.963Z,78.48
2023-03-24T07:10:46.173Z,79.06
2023-03-24T07:13:14.384Z,78.39
2023-03-24T07:15:43.064Z,79.70
2023-03-24T07:18:13.604Z,79.79
2023-03-24T07:20:44.527Z,80.75
2023-03-24T07:23:15.906Z,80.72
2023-03-24T07:25:59.011Z,80.50
2023-03-24T07:28:50.399Z,82.05
2023-03-24T07:31:28.621Z,81.90
2023-03-24T07:34:02.226Z,82.48
2023-03-24T07:36:30.842Z,83.10
2023-03-24T07:38:59.895Z,84.43
2023-03-24T07:41:35.114Z,84.35
2023-03-24T07:44:07.748Z,84.92
2023-03-24T07:46:40.598Z,85.92
2023-03-24T07:49:19.030Z,86.25
2023-03-24T07:51:54.600Z,86.46
2023-03-24T07:54:41.445Z,87.53
2023-03-24T07:57:11.469Z,86.51
2023-03-24T07:59:40.154Z,87.23
2023-03-24T08:02:21.266Z,86.84
2023-03-24T08:04:58.164Z,88.24
2023-03-24T08:07:50.435Z,87.93
2023-03-24T08:10:18.673Z,87.16
2023-03-24T08:12:48.697Z,88.74
2023-03-24T08:15:19.070Z,88.67
2023-03-24T08:17:48.881Z,89.34
2023-03-24T08:20:17.849Z,88.28
2023-03-24T08:22:49.685Z,87.91
2023-03-24T08:25:19.377Z,89.37
2023-03-24T08:27:49.172Z,89.63
2023-03-24T08:30:18.999Z,90.51
2023-03-24T08:32:47.520Z,90.45
2023-03-24T08:35:17.494Z,90.04
2023-03-24T08:37:46.528Z,89.84
2023-03-24T08:40:19.200Z,91.42
2023-03-24T08:42:51.858Z,89.84
2023-03-24T08:45:22.294Z,90.25
2023-03-24T08:47:53.614Z,89.81
2023-03-24T08:50:26.255Z,90.18
2023-03-24T08:52:59.540Z,88.44
2023-03-24T08:55:30.279Z,88.67
2023-03-24T08:58:00.683Z,88.47
2023-03-24T09:00:31.440Z,87.63
2023-03-24T09:03:01.564Z,87.57
2023-03-24T09:05:41.422Z,86.66
2023-03-24T09:08:19.999Z,86.42
2023-03-24T09:10:48.059Z,86.92
2023-03-24T09:13:18.419Z,86.43
2023-03-24T09:15:49.992Z,85.34
2023-03-24T09:18:18.747Z,85.69
2023-03-24T09:20:47.381Z,84.66
2023-03-24T09:23:16.210Z,84.03
2023-03-24T09:25:44.009Z,84.09
2023-03-24T09:28:14.617Z,83.63
2023-03-24T09:30:46.242Z,83.53
2023-03-24T09:33:14.392Z,83.46
2023-03-24T09:35:42.939Z,82.01
2023-03-24T09:38:12.312Z,83.38
2023-03-24T09:40:42.580Z,82.02
2023-03-24T09:43:28.249Z,81.31
2023-03-24T09:46:00.040Z,80.74
2023-03-24T09:48:34.925Z,80.31
2023-03-24T09:51:07.215Z,80.37
2023-03-24T09:53:41.794Z,79.17
2023-03-24T09:56:18.888Z,78.69
2023-03-24T09:58:54.422Z,77.89
2023-03-24T10:01:23.659Z,76.41
2023-03-24T10:03:51.909Z,76.71
2023-03-24T10:06:26.026Z,76.03
2023-03-24T10:09:04.824Z,75.35
2023-03-24T10:11:39.336Z,75.54
2023-03-24T10:14:34.028Z,74.81
2023-03-24T10:17:14.617Z,73.68
2023-03-24T10:19:54.120Z,72.90
2023-03-24T10:22:32.576Z,74.08
2023-03-24T10:25:08.174Z,72.26
2023-03-24T10:27:41.048Z,71.78
2023-03-24T10:30:16.778Z,69.98
2023-03-24T10:32:47.174Z,69.62
2023-03-24T10:35:23.821Z,69.60
2023-03-24T10:37:53.085Z,68.81
2023-03-24T10:40:23.649Z,67.76
2023-03-24T10:43:06.987Z,66.40
2023-03-24T10:45:40.721Z,67.23
2023-03-24T10:48:10.657Z,66.60
2023-03-24T10:50:43.361Z,65.33
2023-03-24T10:53:18.595Z,64.47
2023-03-24T10:55:48.162Z,65.14
2023-03-24T10:58:22.216Z,65.14
2023-03-24T11:00:50.465Z,65.14
2023-03-24T11:03:28.525Z,65.93
2023-03-24T11:06:01.303Z,66.11
2023-03-24T11:08:35.593Z,64.78
2023-03-24T11:11:15.300Z,64.62
2023-03-24T11:13:56.693Z,64.61
2023-03-24T11:16:29.838Z,63.74
2023-03-24T11:19:02.197Z,63.53
2023-03-24T11:21:32.086Z,63.35
2023-03-24T11:24:03.704Z,62.69
2023-03-24T11:26:34.671Z,63.10
2023-03-24T11:29:07.558Z,63.00
2023-03-24T11:31:38.414Z,62.48
2023-03-24T11:34:13.689Z,61.31
2023-03-24T11:36:49.736Z,60.39
2023-03-24T11:39:20.616Z,59.85
2023-03-24T11:42:03.688Z,60.23
2023-03-24T11:44:46.678Z,60.88
2023-03-24T11:47:22.417Z,61.87
2023-03-24T11:49:58.072Z,63.33
2023-03-24T11:52:30.504Z,63.00
2023-03-24T11:54:58.610Z,62.79
2023-03-24T11:57:40.704Z,63.32
2023-03-24T12:00:20.143Z,64.26
2023-03-24T12:03:09.234Z,63.03
2023-03-24T12:05:42.616Z,62.75
2023-03-24T12:08:30.531Z,62.47
2023-03-24T12:11:19.496Z,63.33
2023-03-24T12:13:50.564Z,62.92
2023-03-24T12:16:32.311Z,62.27
2023-03-24T12:19:30.243Z,62.72
2023-03-24T12:22:10.906Z,62.70
2023-03-24T12:24:54.349Z,61.53
2023-03-24T12:27:30.623Z,61.92
2023-03-24T12:30:05.403Z,60.82
2023-03-24T12:32:41.595Z,60.99
2023-03-24T12:35:44.264Z,60.38
2023-03-24T12:38:31.495Z,61.13
2023-03-24T12:41:27.150Z,60.96
2023-03-24T12:44:13.693Z,61.37
2023-03-24T12:46:55.807Z,60.96
2023-03-24T12:49:43.196Z,61.48
2023-03-24T12:52:39.977Z,60.97
2023-03-24T12:55:18.417Z,60.68
2023-03-24T12:57:53.367Z,59.62
2023-03-24T13:00:28.087Z,60.31
2023-03-24T13:03:04.122Z,60.24
2023-03-24T13:05:35.258Z,60.36
2023-03-24T13:08:08.359Z,59.21
2023-03-24T13:10:41.221Z,60.21
2023-03-24T13:13:17.591Z,60.94
2023-03-24T13:15:54.875Z,60.03
2023-03-24T13:18:46.283Z,60.03
2023-03-24T13:21:18.224Z,59.43
2023-03-24T13:23:55.521Z,60.06
2023-03-24T13:26:38.858Z,59.74
2023-03-24T13:29:26.765Z,61.31
2023-03-24T13:32:05.994Z,70.30
2023-03-24T13:34:38.094Z,73.37
2023-03-24T13:37:16.374Z,75.23
2023-03-24T13:39:48.524Z,74.86
2023-03-24T13:42:34.747Z,75.34
2023-03-24T13:45:07.336Z,75.70
2023-03-24T13:48:06.092Z,77.10
2023-03-24T13:50:35.811Z,76.04
2023-03-24T13:53:14.154Z,75.84
2023-03-24T13:55:50.689Z,76.93
2023-03-24T13:58:23.240Z,77.54
2023-03-24T14:01:18.041Z,77.24
2023-03-24T14:03:47.775Z,76.53
2023-03-24T14:06:18.271Z,75.23
2023-03-24T14:09:01.829Z,75.74
2023-03-24T14:11:45.624Z,78.28
2023-03-24T14:14:25.634Z,79.92
2023-03-24T14:17:12.165Z,80.96
2023-03-24T14:19:42.436Z,81.22
2023-03-24T14:22:19.535Z,82.09
2023-03-24T14:25:01.976Z,82.53
2023-03-24T14:27:37.690Z,80.92
2023-03-24T14:30:22.654Z,81.23
2023-03-24T14:32:54.110Z,82.67
2023-03-24T14:35:26.421Z,82.41
2023-03-24T14:37:57.463Z,81.84
2023-03-24T14:40:29.681Z,82.62
2023-03-24T14:43:05.787Z,83.03
2023-03-24T14:45:43.180Z,81.95
2023-03-24T14:48:26.907Z,82.63
2023-03-24T14:50:56.414Z,84.01
2023-03-24T14:53:24.919Z,84.40
2023-03-24T14:55:56.355Z,85.05
2023-03-24T14:58:28.622Z,85.36
2023-03-24T15:01:07.647Z,86.17
2023-03-24T15:03:45.966Z,85.87
2023-03-24T15:06:16.306Z,86.88
2023-03-24T15:08:51.326Z,87.87
2023-03-24T15:11:24.312Z,87.21
2023-03-24T15:13:53.614Z,86.19
2023-03-24T15:16:26.438Z,86.26
2023-03-24T15:21:30.092Z,87.38
2023-03-24T15:24:01.044Z,86.99
2023-03-24T15:26:30.965Z,87.19
2023-03-24T15:29:00.903Z,87.78
2023-03-24T15:31:34.822Z,87.03
2023-03-24T15:34:08.274Z,87.27
2023-03-24T15:36:45.882Z,86.77
2023-03-24T15:39:21.845Z,88.53
2023-03-24T15:41:53.333Z,87.94
2023-03-24T15:44:22.491Z,86.64
2023-03-24T15:46:51.880Z,86.74
2023-03-24T15:49:25.058Z,86.90
2023-03-24T15:52:00.851Z,86.15
2023-03-24T15:54:45.760Z,86.65
2023-03-24T15:57:26.332Z,87.15
2023-03-24T16:00:21.745Z,88.68
2023-03-24T16:03:10.047Z,90.54
2023-03-24T16:05:48.678Z,89.19
2023-03-24T16:08:28.714Z,88.50
2023-03-24T16:10:59.933Z,89.30
2023-03-24T16:13:29.058Z,88.39
2023-03-24T16:16:01.325Z,86.51
2023-03-24T16:18:34.549Z,85.06
2023-03-24T16:21:04.116Z,83.68
2023-03-24T16:23:33.241Z,82.68
2023-03-24T16:26:01.609Z,82.10
2023-03-24T16:28:32.711Z,81.74
2023-03-24T16:31:04.778Z,81.33
2023-03-24T16:33:35.750Z,81.17
2023-03-24T16:36:04.577Z,80.62
2023-03-24T16:38:34.626Z,80.32
2023-03-24T16:41:03.646Z,80.27
2023-03-24T16:43:35.026Z,80.88
2023-03-24T16:46:05.839Z,80.19
2023-03-24T16:48:37.233Z,80.61
2023-03-24T16:51:08.060Z,80.97
2023-03-24T16:53:36.903Z,79.75
2023-03-24T16:56:12.774Z,79.92
2023-03-24T16:58:50.870Z,79.10
2023-03-24T17:01:30.156Z,79.51
2023-03-24T17:04:06.001Z,79.68
2023-03-24T17:06:42.263Z,79.55
2023-03-24T17:09:17.120Z,80.46
2023-03-24T17:11:46.805Z,81.45
2023-03-24T17:14:19.134Z,80.97
2023-03-24T17:16:55.035Z,80.52
2023-03-24T17:19:44.943Z,80.86
2023-03-24T17:22:17.599Z,80.69
2023-03-24T17:24:48.721Z,80.76
2023-03-24T17:27:21.552Z,80.47
2023-03-24T17:29:50.500Z,80.32
2023-03-24T17:32:19.914Z,79.96
2023-03-24T17:34:51.114Z,79.79
2023-03-24T17:37:29.219Z,80.50
2023-03-24T17:40:28.743Z,80.25
2023-03-24T17:42:57.870Z,80.15
2023-03-24T17:45:25.874Z,80.48
2023-03-24T17:47:55.478Z,80.02
2023-03-24T17:50:26.044Z,79.69
2023-03-24T17:52:54.172Z,78.93
2023-03-24T17:55:22.284Z,79.74
2023-03-24T17:57:50.305Z,80.04
2023-03-24T18:00:18.742Z,79.86
2023-03-24T18:02:49.004Z,80.43
2023-03-24T18:05:19.085Z,80.10
2023-03-24T18:07:48.802Z,79.25
2023-03-24T18:10:16.987Z,78.68
2023-03-24T18:12:45.286Z,78.92
2023-03-24T18:15:13.749Z,78.96
2023-03-24T18:17:43.340Z,79.77
2023-03-24T18:20:15.004Z,79.11
2023-03-24T18:22:44.710Z,79.30
2023-03-24T18:25:14.881Z,78.65
2023-03-24T18:27:43.822Z,78.61
2023-03-24T18:30:15.351Z,78.68
2023-03-24T18:32:43.992Z,78.57
2023-03-24T18:35:16.653Z,78.92
2023-03-24T18:37:45.092Z,78.84
2023-03-24T18:40:15.849Z,78.33
2023-03-24T18:42:44.070Z,78.00
2023-03-24T18:45:17.509Z,78.15
2023-03-24T18:47:46.497Z,78.39
2023-03-24T18:50:14.956Z,77.69
2023-03-24T18:52:42.984Z,77.73
2023-03-24T18:55:11.590Z,78.11
2023-03-24T18:57:41.916Z,79.00
2023-03-24T19:00:14.455Z,78.22
2023-03-24T19:02:43.171Z,78.29
2023-03-24T19:05:14.251Z,77.88
2023-03-24T19:07:42.283Z,78.99
2023-03-24T19:10:11.213Z,78.08
2023-03-24T19:12:41.020Z,78.22
2023-03-24T19:15:09.988Z,78.14
2023-03-24T19:17:40.307Z,77.96
2023-03-24T19:20:12.251Z,77.96
2023-03-24T19:22:42.732Z,77.46
2023-03-24T19:25:10.773Z,77.89
2023-03-24T19:27:40.056Z,77.79
2023-03-24T19:30:09.383Z,77.63
2023-03-24T19:32:37.611Z,77.99
2023-03-24T19:35:06.482Z,78.00
2023-03-24T19:37:35.003Z,78.02
2023-03-24T19:40:09.922Z,77.55
2023-03-24T19:42:52.702Z,77.83
2023-03-24T19:45:27.904Z,77.66
2023-03-24T19:47:56.047Z,77.34
2023-03-24T19:50:24.450Z,77.53
2023-03-24T19:52:52.791Z,77.35
2023-03-24T19:55:22.146Z,77.74
2023-03-24T19:57:52.126Z,77.78
2023-03-24T20:00:21.142Z,77.02
2023-03-24T20:02:49.820Z,77.27
2023-03-24T20:05:18.327Z,77.59
2023-03-24T20:07:47.122Z,77.21
2023-03-24T20:10:15.952Z,77.47
2023-03-24T20:12:53.510Z,77.28
2023-03-24T20:15:43.003Z,77.12
2023-03-24T20:18:11.567Z,77.41
2023-03-24T20:20:40.345Z,77.43
2023-03-24T20:23:10.759Z,77.22
2023-03-24T20:25:48.695Z,77.77
2023-03-24T20:28:26.687Z,77.39
2023-03-24T20:31:03.114Z,77.47
2023-03-24T20:33:36.773Z,77.73
2023-03-24T20:36:09.509Z,77.18
2023-03-24T20:38:39.618Z,77.24
2023-03-24T20:41:08.292Z,77.75
2023-03-24T20:43:38.912Z,77.42
2023-03-24T20:46:10.413Z,77.21
2023-03-24T20:48:38.670Z,77.42
2023-03-24T20:51:07.410Z,77.31
2023-03-24T20:53:36.778Z,77.16
2023-03-24T20:56:08.014Z,77.81
2023-03-24T20:58:39.638Z,77.09
2023-03-24T21:01:15.591Z,77.42
2023-03-24T21:03:43.897Z,77.51
2023-03-24T21:06:13.769Z,77.15
2023-03-24T21:08:45.937Z,77.16
2023-03-24T21:11:16.626Z,77.20
2023-03-24T21:13:46.707Z,76.92
2023-03-24T21:16:19.755Z,76.76
2023-03-24T21:18:50.125Z,77.05
2023-03-24T21:21:18.218Z,76.62
2023-03-24T21:23:46.077Z,76.73
2023-03-24T21:26:15.767Z,76.47
2023-03-24T21:28:46.524Z,76.46
2023-03-24T21:31:21.472Z,76.85
2023-03-24T21:33:49.821Z,76.81
2023-03-24T21:36:18.344Z,76.70
2023-03-24T21:38:51.721Z,76.74
2023-03-24T21:41:20.738Z,76.33
2023-03-24T21:43:51.361Z,76.35
2023-03-24T21:46:22.119Z,76.35
2023-03-24T21:48:52.116Z,75.98
2023-03-24T21:51:21.495Z,75.65
2023-03-24T21:53:49.383Z,75.17
2023-03-24T21:56:17.788Z,75.12
2023-03-24T21:58:46.357Z,74.93
2023-03-24T22:01:14.813Z,74.87
2023-03-24T22:03:44.182Z,74.72
2023-03-24T22:06:14.576Z,74.68
2023-03-24T22:08:44.139Z,75.22
2023-03-24T22:11:15.385Z,74.93
2023-03-24T22:13:43.390Z,75.14
2023-03-24T22:16:11.413Z,75.16
2023-03-24T22:18:39.333Z,75.26
2023-03-24T22:21:11.032Z,74.91
2023-03-24T22:23:42.437Z,74.98
2023-03-24T22:26:13.306Z,75.04
2023-03-24T22:28:42.197Z,74.70
2023-03-24T22:31:12.596Z,74.62
2023-03-24T22:33:40.769Z,74.63
2023-03-24T22:36:11.425Z,74.74
2023-03-24T22:38:39.920Z,74.72
2023-03-24T22:41:09.819Z,74.62
2023-03-24T22:43:39.603Z,74.77
2023-03-24T22:46:08.076Z,74.43
2023-03-24T22:48:36.110Z,75.23
2023-03-24T22:51:04.367Z,77.65
2023-03-24T22:53:33.544Z,81.48
2023-03-24T22:56:01.527Z,81.87
2023-03-24T22:58:29.346Z,82.98
2023-03-24T23:00:57.868Z,83.12
2023-03-24T23:03:25.860Z,83.08
2023-03-24T23:05:56.817Z,82.95
2023-03-24T23:08:24.856Z,84.03
2023-03-24T23:10:55.360Z,85.37
2023-03-24T23:13:23.561Z,84.32
2023-03-24T23:15:52.283Z,85.24
2023-03-24T23:18:21.480Z,86.92
2023-03-24T23:20:49.378Z,85.44
2023-03-24T23:23:17.684Z,85.29
2023-03-24T23:25:46.425Z,84.99
2023-03-24T23:28:16.098Z,86.00
2023-03-24T23:30:43.993Z,85.39
2023-03-24T23:33:14.962Z,85.83
2023-03-24T23:35:43.762Z,85.55
2023-03-24T23:38:11.687Z,85.36
2023-03-24T23:40:39.812Z,84.57
2023-03-24T23:43:07.730Z,83.65
2023-03-24T23:45:37.011Z,83.45
2023-03-24T23:48:05.656Z,84.35
2023-03-24T23:50:34.101Z,83.53
2023-03-24T23:53:01.975Z,83.43
2023-03-24T23:55:29.843Z,84.93
2023-03-24T23:57:57.754Z,85.57
